createdAt,value
2017-03-09T00:00:55.757Z,58.89
2017-03-09T00:02:07.221Z,55.85
2017-03-09T00:03:18.673Z,60.88
2017-03-09T00:04:30.113Z,58.98
2017-03-09T00:05:41.753Z,59.17
2017-03-09T00:06:53.201Z,57.56
2017-03-09T00:08:04.634Z,61.17
2017-03-09T00:09:16.097Z,60.88
2017-03-09T00:10:27.789Z,59.36
2017-03-09T00:11:39.433Z,59.55
2017-03-09T00:12:50.881Z,63.17
2017-03-09T00:14:02.320Z,61.83
2017-03-09T00:15:13.760Z,59.74
2017-03-09T00:16:25.192Z,62.5
2017-03-09T00:17:36.622Z,61.65
2017-03-09T00:18:48.054Z,61.07
2017-03-09T00:19:59.737Z,62.97
2017-03-09T00:21:11.208Z,63.45
2017-03-09T00:22:22.641Z,62.59
2017-03-09T00:23:34.068Z,63.35
2017-03-09T00:24:45.496Z,65.54
2017-03-09T00:25:56.927Z,62.5
2017-03-09T00:27:08.368Z,64.11
2017-03-09T00:28:19.800Z,67.34
2017-03-09T00:29:31.441Z,66.58
2017-03-09T00:30:42.916Z,68.1
2017-03-09T00:31:54.557Z,65.63
2017-03-09T00:33:05.987Z,63.35
2017-03-09T00:34:17.630Z,61.07
2017-03-09T00:35:29.069Z,65.63
2017-03-09T00:36:40.514Z,65.35
2017-03-09T00:37:51.987Z,66.77
2017-03-09T00:39:03.432Z,65.73
2017-03-09T00:40:14.872Z,67.91
2017-03-09T00:41:26.543Z,70.1
2017-03-09T00:42:37.987Z,71.62
2017-03-09T00:43:49.456Z,70
2017-03-09T00:45:00.892Z,68.48
2017-03-09T00:46:12.325Z,72.28
2017-03-09T00:47:23.824Z,70
2017-03-09T00:48:35.262Z,67.15
2017-03-09T00:49:46.712Z,67.91
2017-03-09T00:50:58.163Z,67.82
2017-03-09T00:52:09.799Z,68.77
2017-03-09T00:53:21.307Z,70.19
2017-03-09T00:54:32.778Z,71.43
2017-03-09T00:55:44.226Z,69.24
2017-03-09T00:56:55.861Z,67.82
2017-03-09T00:58:07.351Z,72.95
2017-03-09T00:59:18.996Z,71.23
2017-03-09T01:00:30.438Z,69.24
2017-03-09T01:01:41.881Z,67.25
2017-03-09T01:02:53.325Z,69.43
2017-03-09T01:04:04.980Z,66.77
2017-03-09T01:05:16.605Z,66.49
2017-03-09T01:06:28.044Z,69.43
2017-03-09T01:07:39.507Z,70.76
2017-03-09T01:08:50.988Z,73.14
2017-03-09T01:10:02.461Z,71.04
2017-03-09T01:11:13.898Z,70.57
2017-03-09T01:12:25.342Z,73.71
2017-03-09T01:13:36.980Z,76.75
2017-03-09T01:14:48.633Z,74.37
2017-03-09T01:16:00.307Z,74.85
2017-03-09T01:17:11.749Z,74.94
2017-03-09T01:18:23.173Z,75.23
2017-03-09T01:19:34.630Z,73.23
2017-03-09T01:20:46.109Z,74.37
2017-03-09T01:21:57.745Z,74.75
2017-03-09T01:23:09.174Z,75.04
2017-03-09T01:24:20.633Z,74.08
2017-03-09T01:25:32.075Z,71.52
2017-03-09T01:26:43.503Z,73.71
2017-03-09T01:27:54.930Z,76.08
2017-03-09T01:29:06.384Z,76.46
2017-03-09T01:30:17.880Z,71.96
2017-03-09T01:31:29.323Z,74.05
2017-03-09T01:32:40.777Z,72.66
2017-03-09T01:33:52.216Z,76.14
2017-03-09T01:35:03.663Z,75.51
2017-03-09T01:36:15.106Z,76.18
2017-03-09T01:37:26.558Z,74.15
2017-03-09T01:38:38.007Z,74.27
2017-03-09T01:39:49.439Z,71.81
2017-03-09T01:41:00.933Z,71.86
2017-03-09T01:42:12.579Z,72.25
2017-03-09T01:43:24.018Z,72.15
2017-03-09T01:44:35.455Z,69.02
2017-03-09T01:45:47.113Z,71.48
2017-03-09T01:46:58.556Z,69.96
2017-03-09T01:48:10.183Z,69.59
2017-03-09T01:49:21.657Z,69.78
2017-03-09T01:50:33.099Z,71.96
2017-03-09T01:51:44.746Z,72.53
2017-03-09T01:52:56.203Z,72.15
2017-03-09T01:54:07.629Z,73.67
2017-03-09T01:55:19.068Z,76.04
2017-03-09T01:56:30.508Z,76.9
2017-03-09T01:57:42.207Z,76.8
2017-03-09T01:58:53.868Z,77.94
2017-03-09T02:00:05.318Z,78.32
2017-03-09T02:01:16.792Z,76.32
2017-03-09T02:02:28.236Z,77.66
2017-03-09T02:03:39.671Z,77.52
2017-03-09T02:04:51.120Z,78.09
2017-03-09T02:06:02.557Z,74.2
2017-03-09T02:07:14.020Z,74.11
2017-03-09T02:08:25.513Z,74.39
2017-03-09T02:09:36.984Z,75.15
2017-03-09T02:10:48.458Z,73.72
2017-03-09T02:11:59.908Z,73.82
2017-03-09T02:13:11.368Z,73.07
2017-03-09T02:14:22.837Z,74.77
2017-03-09T02:15:34.276Z,74.68
2017-03-09T02:16:45.729Z,75.81
2017-03-09T02:17:57.174Z,76.39
2017-03-09T02:19:08.662Z,76.01
2017-03-09T02:20:20.102Z,75.4
2017-03-09T02:21:31.582Z,75.11
2017-03-09T02:22:43.433Z,74.92
2017-03-09T02:23:55.099Z,75.68
2017-03-09T02:25:06.560Z,72.17
2017-03-09T02:26:18.216Z,70.28
2017-03-09T02:27:29.682Z,68.29
2017-03-09T02:28:41.125Z,67.43
2017-03-09T02:29:52.553Z,66.58
2017-03-09T02:31:04.060Z,65.82
2017-03-09T02:32:15.706Z,63.17
2017-03-09T02:33:27.339Z,64.11
2017-03-09T02:34:38.764Z,64.3
2017-03-09T02:35:50.205Z,61.08
2017-03-09T02:37:01.671Z,60.6
2017-03-09T02:38:13.108Z,58.51
2017-03-09T02:39:24.947Z,55.96
2017-03-09T02:40:36.453Z,56.99
2017-03-09T02:41:47.885Z,52.64
2017-03-09T02:42:59.326Z,52.54
2017-03-09T02:44:10.746Z,51.68
2017-03-09T02:45:22.376Z,51.31
2017-03-09T02:46:34.016Z,52.26
2017-03-09T02:47:45.686Z,51.87
2017-03-09T02:48:57.128Z,51.4
2017-03-09T02:50:08.607Z,50.74
2017-03-09T02:51:20.503Z,49.88
2017-03-09T02:52:31.938Z,48.46
2017-03-09T02:53:43.570Z,49.69
2017-03-09T02:54:54.995Z,51.97
2017-03-09T02:56:06.427Z,52.73
2017-03-09T02:57:17.854Z,51.78
2017-03-09T02:58:29.301Z,52.64
2017-03-09T02:59:40.743Z,56.52
2017-03-09T03:00:52.172Z,56.24
2017-03-09T03:02:03.816Z,57.66
2017-03-09T03:03:15.337Z,55.57
2017-03-09T03:04:26.767Z,57.76
2017-03-09T03:05:38.191Z,55.29
2017-03-09T03:06:49.649Z,56.9
2017-03-09T03:08:01.101Z,56.24
2017-03-09T03:09:12.543Z,55.38
2017-03-09T03:10:24.388Z,54.15
2017-03-09T03:11:35.846Z,55.67
2017-03-09T03:12:47.340Z,54.91
2017-03-09T03:13:58.781Z,51.97
2017-03-09T03:15:10.239Z,51.4
2017-03-09T03:16:21.879Z,50.93
2017-03-09T03:17:33.527Z,51.97
2017-03-09T03:18:44.972Z,53.87
2017-03-09T03:19:56.408Z,54.15
2017-03-09T03:21:07.858Z,55.04
2017-03-09T03:22:19.300Z,54.27
2017-03-09T03:23:31.010Z,58.14
2017-03-09T03:24:42.448Z,56.52
2017-03-09T03:25:53.902Z,56.71
2017-03-09T03:27:05.345Z,55.38
2017-03-09T03:28:16.771Z,56.08
2017-03-09T03:29:28.248Z,56.93
2017-03-09T03:30:39.694Z,57.21
2017-03-09T03:31:51.350Z,55.6
2017-03-09T03:33:02.773Z,54.85
2017-03-09T03:34:14.209Z,53.52
2017-03-09T03:35:25.641Z,51.9
2017-03-09T03:36:37.284Z,51.05
2017-03-09T03:37:48.716Z,52
2017-03-09T03:39:00.207Z,52.47
2017-03-09T03:40:11.653Z,52.19
2017-03-09T03:41:23.138Z,50.38
2017-03-09T03:42:34.575Z,53.14
2017-03-09T03:43:46.016Z,56.17
2017-03-09T03:44:57.458Z,54.85
2017-03-09T03:46:08.912Z,52.09
2017-03-09T03:47:20.535Z,52.19
2017-03-09T03:48:31.959Z,52.19
2017-03-09T03:49:43.822Z,52.95
2017-03-09T03:50:55.295Z,51.52
2017-03-09T03:52:06.751Z,50.86
2017-03-09T03:53:18.380Z,53.8
2017-03-09T03:54:29.803Z,53.42
2017-03-09T03:55:41.229Z,51.52
2017-03-09T03:56:52.670Z,50.95
2017-03-09T03:58:04.111Z,52
2017-03-09T03:59:15.575Z,55.51
2017-03-09T04:00:27.010Z,60.92
2017-03-09T04:01:38.490Z,61.01
2017-03-09T04:02:49.930Z,60.73
2017-03-09T04:04:01.576Z,61.77
2017-03-09T04:05:13.012Z,57.79
2017-03-09T04:06:24.456Z,56.65
2017-03-09T04:07:35.896Z,53.61
2017-03-09T04:08:47.332Z,56.93
2017-03-09T04:09:58.960Z,58.83
2017-03-09T04:11:10.427Z,59.68
2017-03-09T04:12:22.064Z,64.9
2017-03-09T04:13:33.774Z,67.46
2017-03-09T04:14:45.220Z,69.27
2017-03-09T04:15:56.667Z,69.55
2017-03-09T04:17:08.115Z,62.05
2017-03-09T04:18:19.580Z,60.16
2017-03-09T04:19:31.041Z,58.92
2017-03-09T04:20:42.504Z,58.17
2017-03-09T04:21:54.141Z,58.64
2017-03-09T04:23:05.633Z,57.5
2017-03-09T04:24:17.491Z,56.46
2017-03-09T04:25:28.935Z,56.81
2017-03-09T04:26:40.584Z,56.34
2017-03-09T04:27:52.027Z,57.47
2017-03-09T04:29:03.452Z,57.47
2017-03-09T04:30:14.901Z,58.8
2017-03-09T04:31:26.341Z,56.81
2017-03-09T04:32:37.972Z,57.12
2017-03-09T04:33:49.471Z,57.28
2017-03-09T04:35:01.121Z,57.21
2017-03-09T04:36:12.748Z,55.79
2017-03-09T04:37:24.186Z,55.32
2017-03-09T04:38:35.614Z,58.07
2017-03-09T04:39:47.235Z,58.64
2017-03-09T04:40:58.680Z,59.4
2017-03-09T04:42:10.133Z,61.01
2017-03-09T04:43:21.554Z,63.01
2017-03-09T04:44:32.994Z,64.33
2017-03-09T04:45:44.639Z,65.19
2017-03-09T04:46:56.070Z,62.34
2017-03-09T04:48:07.512Z,63.01
2017-03-09T04:49:18.952Z,64.62
2017-03-09T04:50:30.430Z,61.01
2017-03-09T04:51:41.892Z,61.39
2017-03-09T04:52:53.533Z,58.73
2017-03-09T04:54:04.968Z,59.88
2017-03-09T04:55:16.400Z,60.73
2017-03-09T04:56:27.844Z,59.21
2017-03-09T04:57:39.472Z,56.27
2017-03-09T04:58:51.333Z,57.5
2017-03-09T05:00:02.786Z,57.21
2017-03-09T05:01:14.279Z,55.98
2017-03-09T05:02:25.701Z,59.97
2017-03-09T05:03:37.156Z,59.11
2017-03-09T05:04:48.587Z,58.73
2017-03-09T05:06:00.018Z,58.83
2017-03-09T05:07:11.464Z,61.49
2017-03-09T05:08:23.094Z,63.57
2017-03-09T05:09:34.728Z,63.92
2017-03-09T05:10:46.173Z,63.1
2017-03-09T05:11:58.072Z,63.1
2017-03-09T05:13:09.512Z,62.4
2017-03-09T05:14:20.985Z,60.5
2017-03-09T05:15:32.432Z,61.49
2017-03-09T05:16:43.863Z,61.46
2017-03-09T05:17:55.293Z,61.65
2017-03-09T05:19:06.734Z,61.93
2017-03-09T05:20:18.393Z,62.88
2017-03-09T05:21:30.055Z,60.98
2017-03-09T05:22:41.730Z,60.22
2017-03-09T05:23:53.159Z,59.46
2017-03-09T05:25:04.593Z,59.84
2017-03-09T05:26:16.042Z,60.7
2017-03-09T05:27:27.484Z,60.41
2017-03-09T05:28:38.933Z,60.79
2017-03-09T05:29:50.412Z,61.93
2017-03-09T05:31:01.853Z,63.45
2017-03-09T05:32:13.290Z,65.72
2017-03-09T05:33:24.765Z,68.29
2017-03-09T05:34:36.201Z,69.23
2017-03-09T05:35:47.648Z,68.85
2017-03-09T05:36:59.285Z,69.8
2017-03-09T05:38:10.724Z,68.38
2017-03-09T05:39:22.156Z,69.33
2017-03-09T05:40:33.792Z,70.28
2017-03-09T05:41:45.246Z,68.57
2017-03-09T05:42:56.686Z,66.1
2017-03-09T05:44:08.168Z,64.11
2017-03-09T05:45:19.606Z,64.01
2017-03-09T05:46:31.031Z,60.89
2017-03-09T05:47:42.672Z,61.55
2017-03-09T05:48:54.132Z,61.27
2017-03-09T05:50:05.584Z,60.13
2017-03-09T05:51:17.038Z,58.99
2017-03-09T05:52:28.491Z,58.99
2017-03-09T05:53:39.925Z,61.74
2017-03-09T05:54:51.364Z,61.74
2017-03-09T05:56:02.855Z,61.46
2017-03-09T05:57:14.298Z,61.43
2017-03-09T05:58:25.743Z,61.08
2017-03-09T05:59:37.187Z,61.05
2017-03-09T06:00:48.627Z,60.89
2017-03-09T06:02:00.271Z,60.95
2017-03-09T06:03:11.717Z,62.75
2017-03-09T06:04:23.372Z,62.78
2017-03-09T06:05:34.850Z,62.75
2017-03-09T06:06:46.510Z,63.42
2017-03-09T06:07:57.948Z,65.41
2017-03-09T06:09:09.588Z,67.87
2017-03-09T06:10:21.022Z,69.96
2017-03-09T06:11:32.679Z,68.73
2017-03-09T06:12:44.140Z,69.67
2017-03-09T06:13:55.787Z,70.81
2017-03-09T06:15:07.240Z,71.76
2017-03-09T06:16:18.732Z,71.66
2017-03-09T06:17:30.191Z,70.72
2017-03-09T06:18:41.610Z,71.19
2017-03-09T06:19:53.068Z,71.66
2017-03-09T06:21:04.514Z,71.66
2017-03-09T06:22:16.029Z,72.23
2017-03-09T06:23:27.691Z,72.71
2017-03-09T06:24:39.149Z,74.79
2017-03-09T06:25:50.589Z,75.64
2017-03-09T06:27:02.038Z,75.07
2017-03-09T06:28:13.483Z,75.93
2017-03-09T06:29:25.123Z,73.94
2017-03-09T06:30:36.560Z,75.36
2017-03-09T06:31:48.001Z,73.08
2017-03-09T06:32:59.490Z,69.57
2017-03-09T06:34:10.919Z,67.58
2017-03-09T06:35:22.378Z,68.44
2017-03-09T06:36:33.836Z,68.82
2017-03-09T06:37:45.262Z,66.16
2017-03-09T06:38:56.709Z,65.41
2017-03-09T06:40:08.154Z,65.03
2017-03-09T06:41:19.582Z,64.84
2017-03-09T06:42:31.009Z,63.79
2017-03-09T06:43:42.501Z,62.94
2017-03-09T06:44:54.143Z,61.61
2017-03-09T06:46:05.590Z,61.9
2017-03-09T06:47:17.235Z,61.33
2017-03-09T06:48:28.670Z,61.24
2017-03-09T06:49:40.124Z,59.05
2017-03-09T06:50:51.785Z,57.54
2017-03-09T06:52:03.207Z,56.49
2017-03-09T06:53:14.841Z,54.69
2017-03-09T06:54:26.336Z,53.58
2017-03-09T06:55:37.768Z,53.75
2017-03-09T06:56:49.216Z,54.34
2017-03-09T06:58:00.671Z,53.39
2017-03-09T06:59:12.114Z,55.1
2017-03-09T07:00:23.738Z,56.99
2017-03-09T07:01:35.386Z,55.86
2017-03-09T07:02:47.026Z,54.82
2017-03-09T07:03:58.463Z,53.96
2017-03-09T07:05:09.889Z,54.15
2017-03-09T07:06:21.395Z,53.58
2017-03-09T07:07:32.840Z,52.73
2017-03-09T07:08:44.286Z,53.87
2017-03-09T07:09:55.713Z,55.1
2017-03-09T07:11:07.350Z,53.77
2017-03-09T07:12:18.812Z,52.83
2017-03-09T07:13:30.274Z,53.96
2017-03-09T07:14:41.920Z,52.45
2017-03-09T07:15:53.413Z,52.26
2017-03-09T07:17:04.848Z,51.4
2017-03-09T07:18:16.286Z,51.4
2017-03-09T07:19:27.724Z,52.92
2017-03-09T07:20:39.168Z,52.92
2017-03-09T07:21:50.603Z,52.54
2017-03-09T07:23:02.032Z,53.2
2017-03-09T07:24:13.467Z,52.06
2017-03-09T07:25:24.918Z,54.56
2017-03-09T07:26:36.607Z,55.89
2017-03-09T07:27:48.061Z,58.92
2017-03-09T07:28:59.501Z,57.5
2017-03-09T07:30:10.927Z,57.98
2017-03-09T07:31:22.568Z,59.59
2017-03-09T07:32:34.003Z,56.65
2017-03-09T07:33:45.431Z,56.08
2017-03-09T07:34:57.055Z,55.6
2017-03-09T07:36:08.502Z,56.46
2017-03-09T07:37:19.922Z,56.36
2017-03-09T07:38:31.368Z,56.65
2017-03-09T07:39:42.834Z,59.11
2017-03-09T07:40:54.468Z,57.88
2017-03-09T07:42:05.912Z,59.02
2017-03-09T07:43:17.397Z,59.11
2017-03-09T07:44:29.048Z,61.87
2017-03-09T07:45:40.504Z,58.73
2017-03-09T07:46:51.956Z,56.65
2017-03-09T07:48:03.398Z,57.03
2017-03-09T07:49:14.846Z,57.98
2017-03-09T07:50:26.296Z,60.82
2017-03-09T07:51:37.734Z,64.14
2017-03-09T07:52:49.165Z,63.2
2017-03-09T07:54:00.661Z,63.95
2017-03-09T07:55:12.108Z,63.86
2017-03-09T07:56:23.741Z,61.68
2017-03-09T07:57:35.376Z,63.1
2017-03-09T07:58:46.829Z,63.98
2017-03-09T07:59:58.285Z,61.14
2017-03-09T08:01:09.720Z,61.61
2017-03-09T08:02:21.361Z,62.46
2017-03-09T08:03:32.804Z,60.85
2017-03-09T08:04:44.291Z,60.85
2017-03-09T08:05:55.734Z,61.42
2017-03-09T08:07:07.200Z,61.99
2017-03-09T08:08:18.650Z,59.91
2017-03-09T08:09:30.079Z,61.23
2017-03-09T08:10:41.715Z,61.71
2017-03-09T08:11:53.349Z,60.76
2017-03-09T08:13:04.792Z,60.85
2017-03-09T08:14:16.250Z,60.95
2017-03-09T08:15:27.907Z,61.52
2017-03-09T08:16:39.597Z,61.52
2017-03-09T08:17:51.255Z,60.79
2017-03-09T08:19:02.696Z,67.63
2017-03-09T08:20:14.166Z,66.39
2017-03-09T08:21:25.607Z,65.76
2017-03-09T08:22:37.258Z,78.3
2017-03-09T08:23:48.697Z,74.79
2017-03-09T08:25:00.139Z,77.97
2017-03-09T08:26:11.670Z,83.86
2017-03-09T08:27:23.312Z,87.23
2017-03-09T08:28:34.764Z,92.99
2017-03-09T08:29:46.215Z,99.99
2017-03-09T08:30:58.066Z,99.99
2017-03-09T08:32:09.514Z,99.99
2017-03-09T08:33:21.008Z,99.99
2017-03-09T08:34:32.452Z,99.99
2017-03-09T08:35:44.105Z,99.99
2017-03-09T08:36:55.594Z,99.99
2017-03-09T08:40:24.521Z,99.99
2017-03-09T08:41:36.182Z,99.99
2017-03-09T08:42:47.882Z,99.99
2017-03-09T08:43:59.351Z,99.99
2017-03-09T08:45:11.023Z,99.99
2017-03-09T08:47:32.268Z,99.99
2017-03-09T08:48:43.931Z,99.99
2017-03-09T08:49:55.586Z,99.99
2017-03-09T08:51:07.031Z,99.99
2017-03-09T08:52:18.514Z,99.99
2017-03-09T08:53:30.036Z,99.99
2017-03-09T08:54:41.484Z,99.99
2017-03-09T08:55:52.952Z,99.99
2017-03-09T08:57:04.639Z,99.99
2017-03-09T08:58:16.094Z,99.99
2017-03-09T08:59:27.574Z,99.99
2017-03-09T09:00:39.015Z,99.99
2017-03-09T09:01:50.481Z,99.99
2017-03-09T09:03:01.991Z,99.99
2017-03-09T09:04:13.658Z,99.99
2017-03-09T09:05:25.153Z,99.99
2017-03-09T09:06:36.612Z,99.99
2017-03-09T09:07:48.266Z,99.99
2017-03-09T09:08:59.719Z,99.99
2017-03-09T09:10:11.172Z,99.99
2017-03-09T09:11:22.636Z,99.99
2017-03-09T09:12:34.135Z,99.99
2017-03-09T09:13:45.628Z,99.99
2017-03-09T09:14:57.082Z,99.99
2017-03-09T09:16:08.538Z,99.99
2017-03-09T09:17:19.981Z,99.99
2017-03-09T09:18:31.433Z,99.99
2017-03-09T09:19:43.081Z,99.99
2017-03-09T09:20:54.527Z,99.99
2017-03-09T09:22:05.981Z,99.99
2017-03-09T09:23:17.438Z,99.99
2017-03-09T09:24:28.899Z,99.99
2017-03-09T09:25:40.404Z,99.99
2017-03-09T09:26:51.871Z,99.99
2017-03-09T09:28:03.346Z,99.99
2017-03-09T09:29:14.796Z,99.99
2017-03-09T09:30:26.245Z,99.99
2017-03-09T09:31:37.697Z,99.99
2017-03-09T09:32:49.176Z,99.99
2017-03-09T09:34:00.620Z,99.99
2017-03-09T09:35:12.317Z,99.99
2017-03-09T09:36:23.956Z,99.99
2017-03-09T09:37:35.615Z,99.99
2017-03-09T09:38:47.090Z,99.99
2017-03-09T09:39:58.531Z,99.99
2017-03-09T09:41:10.177Z,99.99
2017-03-09T09:42:21.645Z,99.99
2017-03-09T09:43:33.105Z,99.99
2017-03-09T09:44:44.551Z,99.99
2017-03-09T09:45:56.076Z,99.99
2017-03-09T09:47:07.524Z,99.99
2017-03-09T09:48:19.171Z,99.99
2017-03-09T09:49:30.828Z,99.99
2017-03-09T09:50:42.293Z,99.99
2017-03-09T09:51:53.840Z,99.99
2017-03-09T09:54:14.630Z,99.99
2017-03-09T09:55:26.276Z,99.99
2017-03-09T09:56:37.921Z,99.99
2017-03-09T09:57:49.579Z,99.99
2017-03-09T09:59:01.043Z,99.99
2017-03-09T10:00:12.507Z,99.99
2017-03-09T10:01:23.949Z,99.99
2017-03-09T10:02:35.600Z,99.99
2017-03-09T10:03:47.369Z,99.99
2017-03-09T10:04:58.833Z,99.99
2017-03-09T10:06:10.275Z,99.99
2017-03-09T10:07:21.713Z,99.99
2017-03-09T10:08:33.149Z,99.99
2017-03-09T10:09:44.597Z,99.99
2017-03-09T10:10:56.041Z,99.99
2017-03-09T10:12:07.876Z,99.99
2017-03-09T10:13:19.376Z,99.99
2017-03-09T10:14:30.866Z,99.99
2017-03-09T10:15:42.536Z,99.99
2017-03-09T10:16:53.990Z,99.99
2017-03-09T10:18:05.820Z,99.99
2017-03-09T10:19:17.265Z,99.99
2017-03-09T10:20:28.723Z,99.99
2017-03-09T10:21:40.161Z,99.99
2017-03-09T10:22:51.611Z,99.99
2017-03-09T10:24:03.116Z,99.99
2017-03-09T10:25:14.559Z,99.99
2017-03-09T10:26:26.011Z,99.99
2017-03-09T10:27:37.446Z,99.65
2017-03-09T10:28:49.120Z,99.99
2017-03-09T10:30:00.769Z,98.88
2017-03-09T10:31:12.219Z,96.98
2017-03-09T10:32:23.668Z,96.51
2017-03-09T10:33:35.112Z,97.93
2017-03-09T10:34:46.612Z,98.03
2017-03-09T10:35:58.075Z,92.13
2017-03-09T10:37:09.529Z,93.08
2017-03-09T10:38:21.173Z,91.65
2017-03-09T10:39:32.653Z,90.42
2017-03-09T10:40:44.302Z,88.32
2017-03-09T10:41:55.736Z,88.04
2017-03-09T10:43:07.189Z,85.56
2017-03-09T10:44:18.836Z,82.99
2017-03-09T10:45:30.745Z,81.28
2017-03-09T10:46:42.193Z,77.95
2017-03-09T10:47:53.630Z,77.09
2017-03-09T10:49:05.289Z,76.61
2017-03-09T10:50:16.718Z,72.24
2017-03-09T10:51:28.187Z,70.05
2017-03-09T10:52:39.625Z,68.68
2017-03-09T10:53:51.072Z,69.92
2017-03-09T10:55:02.713Z,68.77
2017-03-09T10:56:14.220Z,65.25
2017-03-09T10:57:25.675Z,64.4
2017-03-09T10:58:37.119Z,64.21
2017-03-09T10:59:48.572Z,61.64
2017-03-09T11:01:00.011Z,61.07
2017-03-09T11:02:11.743Z,56.98
2017-03-09T11:03:23.204Z,57.84
2017-03-09T11:04:34.661Z,56.6
2017-03-09T11:05:46.318Z,57.74
2017-03-09T11:06:57.753Z,59.27
2017-03-09T11:08:09.207Z,61.35
2017-03-09T11:09:20.847Z,60.21
2017-03-09T11:10:32.476Z,59.17
2017-03-09T11:11:43.913Z,56.79
2017-03-09T11:12:55.549Z,55.65
2017-03-09T11:14:07.380Z,54.13
2017-03-09T11:15:18.840Z,52.22
2017-03-09T11:16:30.500Z,51.65
2017-03-09T11:17:41.949Z,50.89
2017-03-09T11:18:53.581Z,50.23
2017-03-09T11:20:05.033Z,50.6
2017-03-09T11:21:16.663Z,49.46
2017-03-09T11:22:28.202Z,47.94
2017-03-09T11:23:39.666Z,46.33
2017-03-09T11:24:51.101Z,47.28
2017-03-09T11:26:02.569Z,46.7
2017-03-09T11:27:14.009Z,47.18
2017-03-09T11:28:25.533Z,46.61
2017-03-09T11:29:36.994Z,45.85
2017-03-09T11:30:48.633Z,45
2017-03-09T11:32:00.093Z,45.28
2017-03-09T11:33:11.528Z,43.47
2017-03-09T11:34:22.992Z,45.66
2017-03-09T11:35:34.646Z,45.66
2017-03-09T11:36:46.080Z,43.28
2017-03-09T11:37:57.513Z,43.47
2017-03-09T11:39:09.161Z,41.76
2017-03-09T11:40:20.608Z,42.04
2017-03-09T11:41:32.058Z,41.57
2017-03-09T11:42:43.904Z,42.43
2017-03-09T11:43:55.350Z,43.38
2017-03-09T11:45:06.788Z,42.9
2017-03-09T11:46:18.257Z,42.61
2017-03-09T11:47:29.691Z,41.47
2017-03-09T11:48:41.122Z,41.19
2017-03-09T11:49:52.625Z,43.47
2017-03-09T11:51:04.053Z,42.9
2017-03-09T11:52:15.496Z,41.76
2017-03-09T11:53:26.970Z,40.71
2017-03-09T11:54:38.438Z,41.09
2017-03-09T11:55:49.883Z,41.76
2017-03-09T11:57:01.334Z,40.05
2017-03-09T11:58:12.769Z,38.71
2017-03-09T11:59:24.284Z,37.38
2017-03-09T12:00:35.936Z,37.48
2017-03-09T12:01:47.387Z,38.05
2017-03-09T12:02:58.832Z,36.91
2017-03-09T12:04:10.453Z,37.48
2017-03-09T12:05:21.918Z,38.05
2017-03-09T12:06:33.364Z,37.95
2017-03-09T12:07:44.850Z,36.43
2017-03-09T12:08:56.285Z,39.86
2017-03-09T12:10:07.781Z,41.3
2017-03-09T12:11:19.237Z,38.26
2017-03-09T12:12:30.679Z,41.66
2017-03-09T12:13:42.116Z,36.83
2017-03-09T12:14:53.559Z,41.11
2017-03-09T12:16:05.020Z,41.4
2017-03-09T12:17:16.465Z,40.54
2017-03-09T12:18:27.906Z,37.97
2017-03-09T12:19:39.344Z,37.3
2017-03-09T12:20:50.834Z,38.17
2017-03-09T12:22:02.310Z,41.88
2017-03-09T12:23:13.744Z,44.45
2017-03-09T12:24:25.615Z,48.06
2017-03-09T12:25:37.082Z,47.97
2017-03-09T12:26:48.583Z,45.97
2017-03-09T12:28:00.033Z,44.06
2017-03-09T12:29:11.505Z,43.68
2017-03-09T12:30:22.952Z,47.23
2017-03-09T12:31:34.619Z,43.51
2017-03-09T12:32:46.316Z,48.94
2017-03-09T12:33:57.766Z,49.13
2017-03-09T12:35:09.234Z,47.23
2017-03-09T12:36:20.700Z,48.94
2017-03-09T12:37:32.159Z,56.56
2017-03-09T12:38:43.645Z,52.09
2017-03-09T12:39:55.104Z,48.47
2017-03-09T12:41:06.551Z,59.32
2017-03-09T12:42:18.006Z,54.18
2017-03-09T12:43:29.446Z,54.08
2017-03-09T12:44:41.197Z,61.04
2017-03-09T12:45:52.632Z,58.47
2017-03-09T12:47:04.078Z,54.56
2017-03-09T12:48:15.511Z,54.27
2017-03-09T12:49:26.963Z,62.08
2017-03-09T12:50:38.681Z,51.61
2017-03-09T12:51:50.108Z,54.75
2017-03-09T12:53:01.553Z,55.22
2017-03-09T12:54:13.021Z,59.32
2017-03-09T12:55:24.464Z,60.75
2017-03-09T12:56:35.899Z,64.28
2017-03-09T12:57:47.766Z,59.8
2017-03-09T12:58:59.214Z,62.65
2017-03-09T13:00:10.953Z,60.18
2017-03-09T13:01:22.620Z,57.42
2017-03-09T13:02:34.094Z,58.84
2017-03-09T13:03:45.565Z,52.28
2017-03-09T13:04:57.225Z,57.04
2017-03-09T13:06:08.677Z,55.8
2017-03-09T13:07:20.150Z,52.37
2017-03-09T13:08:31.594Z,61.61
2017-03-09T13:09:43.046Z,57.42
2017-03-09T13:10:54.488Z,50.18
2017-03-09T13:12:06.143Z,52.87
2017-03-09T13:13:17.594Z,58.84
2017-03-09T13:14:29.257Z,57.07
2017-03-09T13:15:40.950Z,61.83
2017-03-09T13:16:52.400Z,59.45
2017-03-09T13:18:03.835Z,57.26
2017-03-09T13:19:15.297Z,64.69
2017-03-09T13:20:26.744Z,57.82
2017-03-09T13:21:38.388Z,60.97
2017-03-09T13:22:49.849Z,61.73
2017-03-09T13:24:01.286Z,61.73
2017-03-09T13:25:12.784Z,65.07
2017-03-09T13:26:24.234Z,66.4
2017-03-09T13:27:35.679Z,61.25
2017-03-09T13:28:47.145Z,59.16
2017-03-09T13:29:58.809Z,60.49
2017-03-09T13:31:10.273Z,66.02
2017-03-09T13:32:21.712Z,62.88
2017-03-09T13:33:33.142Z,63.35
2017-03-09T13:34:44.787Z,64.12
2017-03-09T13:35:56.240Z,61.16
2017-03-09T13:37:07.691Z,62.78
2017-03-09T13:38:19.339Z,69.35
2017-03-09T13:39:30.982Z,66.88
2017-03-09T13:40:42.484Z,69.74
2017-03-09T13:41:53.929Z,70.02
2017-03-09T13:43:05.370Z,64.87
2017-03-09T13:44:17.030Z,63.17
2017-03-09T13:45:28.691Z,63.54
2017-03-09T13:46:40.160Z,63.35
2017-03-09T13:47:51.819Z,62.3
2017-03-09T13:49:03.268Z,66.78
2017-03-09T13:50:14.725Z,61.35
2017-03-09T13:51:26.164Z,65.26
2017-03-09T13:52:37.606Z,68.02
2017-03-09T13:53:49.466Z,65.92
2017-03-09T13:55:00.906Z,70.78
2017-03-09T13:56:12.879Z,70.31
2017-03-09T13:57:24.332Z,65.26
2017-03-09T13:58:35.989Z,70.02
2017-03-09T13:59:47.438Z,67.26
2017-03-09T14:00:59.085Z,67.26
2017-03-09T14:02:10.547Z,65.92
2017-03-09T14:03:22.015Z,66.59
2017-03-09T14:04:33.509Z,65.26
2017-03-09T14:05:44.975Z,66.97
2017-03-09T14:06:56.400Z,71.93
2017-03-09T14:08:08.045Z,69.45
2017-03-09T14:09:19.495Z,67.83
2017-03-09T14:10:30.962Z,64.31
2017-03-09T14:11:42.928Z,71.55
2017-03-09T14:12:54.593Z,72.02
2017-03-09T14:14:06.079Z,71.64
2017-03-09T14:15:17.522Z,69.07
2017-03-09T14:16:28.957Z,72.41
2017-03-09T14:17:40.410Z,78.12
2017-03-09T14:18:52.242Z,73.55
2017-03-09T14:20:03.696Z,73.45
2017-03-09T14:21:15.157Z,73.93
2017-03-09T14:22:26.590Z,72.69
2017-03-09T14:23:38.038Z,73.36
2017-03-09T14:24:49.504Z,76.03
2017-03-09T14:26:00.955Z,76.4
2017-03-09T14:27:12.449Z,69.64
2017-03-09T14:28:24.077Z,76.88
2017-03-09T14:29:35.717Z,76.4
2017-03-09T14:30:47.188Z,77.36
2017-03-09T14:31:58.622Z,78.59
2017-03-09T14:33:10.273Z,75.74
2017-03-09T14:34:21.705Z,78.88
2017-03-09T14:35:33.159Z,80.6
2017-03-09T14:36:44.801Z,80.31
2017-03-09T14:37:56.250Z,80.6
2017-03-09T14:39:07.908Z,83.55
2017-03-09T14:40:19.348Z,85.84
2017-03-09T14:41:30.831Z,83.93
2017-03-09T14:42:42.268Z,80.41
2017-03-09T14:43:54.033Z,84.79
2017-03-09T14:45:05.485Z,85.17
2017-03-09T14:46:16.910Z,82.12
2017-03-09T14:47:28.350Z,82.5
2017-03-09T14:48:39.812Z,85.36
2017-03-09T14:49:51.252Z,86.32
2017-03-09T14:51:02.695Z,81.36
2017-03-09T14:52:14.130Z,83.93
2017-03-09T14:53:25.573Z,83.55
2017-03-09T14:54:37.040Z,82.6
2017-03-09T14:55:48.506Z,84.12
2017-03-09T14:56:59.971Z,86.41
2017-03-09T14:58:11.417Z,84.88
2017-03-09T14:59:23.103Z,87.36
2017-03-09T15:00:34.558Z,84.03
2017-03-09T15:01:45.987Z,88.03
2017-03-09T15:02:57.429Z,85.84
2017-03-09T15:04:08.880Z,88.98
2017-03-09T15:05:20.343Z,90.41
2017-03-09T15:06:31.973Z,90.12
2017-03-09T15:07:43.415Z,88.31
2017-03-09T15:08:54.864Z,87.74
2017-03-09T15:10:06.307Z,88.51
2017-03-09T15:11:17.763Z,89.94
2017-03-09T15:12:29.231Z,89.65
2017-03-09T15:13:40.692Z,89.75
2017-03-09T15:14:52.140Z,91.36
2017-03-09T15:16:03.597Z,94.03
2017-03-09T15:17:15.032Z,94.13
2017-03-09T15:18:26.478Z,93.65
2017-03-09T15:19:37.981Z,96.12
2017-03-09T15:20:49.416Z,93.55
2017-03-09T15:22:00.896Z,96.32
2017-03-09T15:23:12.333Z,96.51
2017-03-09T15:24:23.986Z,94.51
2017-03-09T15:25:35.424Z,97.27
2017-03-09T15:26:47.064Z,95.75
2017-03-09T15:27:58.518Z,95.46
2017-03-09T15:29:09.955Z,97.94